Terminal Aerodrome Forecast
Issued by NWS

Home | Current Version | Previous Version | Text Only | Print | Product List | Glossary On
Versions: 1 2 3 4 5 6 7 8 9 10 11 12 13 14 15 16 17 18 19 20 21 22 23 24
000
FTUS41 KOKX 231720
TAFSWF
TAF
KSWF 231720Z 2318/2424 32017G31KT P6SM BKN050
     FM232000 32025G37KT P6SM SKC
     FM240600 31017G25KT P6SM SKC
     FM241200 32023G33KT P6SM SKC
     FM241500 33025G35KT P6SM SKC=

USA.gov is the U.S. government's official web portal to all federal, state and local government web resources and services.